»·PEaware :: SWA3175 KSAN-KPHX

SWA3175 :: KSAN-KPHX

FLIGHT INFORMATION

Flight Status: Arrived
Operator:
Southwest Airlines
More flights by this operator :: More flights under this callsign
Pilot: Colin A. (19898)
Aircraft: BOEING 737-700
(B737)
More flights by this aircraft type
Origin: KSAN San Diego Intl-Lindbergh
United States
Destination: KPHX Phoenix Sky Harbor Intl
United States
More flights between these airports :: More routes between these airports
Route: +ZZOOO2 IPL J18 BZA HOGGZ HYDRR1
File this flight plan on PilotEdge
Remarks: PBN / A1B1C1D1S1S2 DOF / 180804 REG / N714SB EET / KZAB0024 OPR / SWA PER / C RMK / TCAS SIMBRIEF
Altitude:
(Current/Filed)
37,000ft
Speed:
(Current/Filed)
435kts
Departed: 04-Aug-18 08:35 AM
Arrived: 04-Aug-18 09:25 AM
Distance/Time
Traveled:
265nm/0:50
Distance/Time
To Go:
Arrived

Flight Plot

Page will automatically refresh every two minutes.

Flight plan parsing failed; only flown route is shown


Map Options




Map Legend


Flown Route
Filed Route
Departure Airport
Arrival Airport
Navaid (VOR, NDB)
Fix

Horizontal Profiles

Position Reports

Time Latitude Longitude Heading Altitude Ground
Speed
04-Aug-18 08:18 32.732551 -117.195471 314 23ft 0kts
04-Aug-18 08:19 32.732551 -117.195471 314 23ft 0kts
04-Aug-18 08:20 32.732551 -117.195471 314 23ft 0kts
04-Aug-18 08:21 32.732551 -117.195471 314 23ft 0kts
04-Aug-18 08:22 32.732551 -117.195471 314 23ft 0kts
04-Aug-18 08:23 32.732551 -117.195471 314 23ft 0kts
04-Aug-18 08:24 32.732551 -117.195471 314 23ft 0kts
04-Aug-18 08:25 32.732551 -117.195471 314 23ft 0kts
04-Aug-18 08:26 32.732443 -117.195346 320 23ft 2kts
04-Aug-18 08:27 32.732025 -117.195367 64 23ft 0kts
04-Aug-18 08:28 32.732025 -117.195367 64 23ft 0kts
04-Aug-18 08:29 32.732026 -117.195365 64 23ft 0kts
04-Aug-18 08:30 32.732079 -117.195233 64 23ft 7kts
04-Aug-18 08:31 32.733112 -117.192025 106 23ft 14kts
04-Aug-18 08:32 32.731493 -117.185314 106 23ft 27kts
04-Aug-18 08:33 32.729608 -117.177575 105 23ft 11kts
04-Aug-18 08:34 32.729508 -117.176851 81 23ft 0kts
04-Aug-18 08:35 32.729508 -117.176849 81 23ft 0kts
04-Aug-18 08:36 32.730526 -117.177237 287 23ft 43kts
04-Aug-18 08:37 32.741909 -117.225164 286 2530ft 181kts
04-Aug-18 08:38 32.753176 -117.293496 255 5296ft 243kts
04-Aug-18 08:39 32.695595 -117.314472 146 8597ft 266kts
04-Aug-18 08:40 32.640274 -117.252524 128 11636ft 283kts
04-Aug-18 08:41 32.623392 -117.157318 99 14358ft 309kts
04-Aug-18 08:42 32.614277 -117.052852 100 16787ft 326kts
04-Aug-18 08:43 32.604364 -116.943198 99 19133ft 343kts
04-Aug-18 08:44 32.619173 -116.828154 78 21296ft 364kts
04-Aug-18 08:45 32.637812 -116.708150 87 23061ft 380kts
04-Aug-18 08:46 32.650134 -116.571125 86 23955ft 455kts
04-Aug-18 08:47 32.664656 -116.416606 86 25918ft 481kts
04-Aug-18 08:48 32.677800 -116.283131 86 27567ft 495kts
04-Aug-18 08:49 32.693234 -116.117952 86 29272ft 511kts
04-Aug-18 08:50 32.711578 -115.919110 87 31026ft 527kts
04-Aug-18 08:51 32.727661 -115.746398 87 32807ft 527kts
04-Aug-18 08:52 32.740610 -115.601647 87 34104ft 529kts
04-Aug-18 08:53 32.752042 -115.427269 93 35564ft 527kts
04-Aug-18 08:54 32.755862 -115.223932 93 36904ft 531kts
04-Aug-18 08:55 32.758882 -115.077845 92 36915ft 529kts
04-Aug-18 08:56 32.762660 -114.902934 92 36682ft 531kts
04-Aug-18 08:57 32.765929 -114.728024 92 34029ft 527kts
04-Aug-18 08:58 32.768531 -114.555530 92 31131ft 518kts
04-Aug-18 08:59 32.771215 -114.386612 92 28228ft 503kts
04-Aug-18 09:00 32.773253 -114.223580 92 25473ft 483kts
04-Aug-18 09:01 32.774984 -114.071509 90 25006ft 454kts
04-Aug-18 09:02 32.790839 -113.922044 84 24912ft 455kts
04-Aug-18 09:03 32.807416 -113.772763 84 24914ft 455kts
04-Aug-18 09:04 32.853098 -113.634482 49 24305ft 454kts
04-Aug-18 09:05 32.936866 -113.526521 47 22943ft 439kts
04-Aug-18 09:06 33.016458 -113.419142 47 21647ft 429kts
04-Aug-18 09:07 33.094718 -113.313581 47 20370ft 420kts
04-Aug-18 09:08 33.171242 -113.209854 48 19180ft 411kts
04-Aug-18 09:09 33.245823 -113.108456 48 17962ft 402kts
04-Aug-18 09:10 33.277834 -112.989268 92 16769ft 371kts
04-Aug-18 09:11 33.279456 -112.868343 91 15669ft 360kts
04-Aug-18 09:12 33.285957 -112.753605 85 14623ft 336kts
04-Aug-18 09:13 33.297232 -112.644154 85 13625ft 328kts
04-Aug-18 09:14 33.307391 -112.536850 83 12646ft 322kts
04-Aug-18 09:15 33.344531 -112.439854 61 10994ft 321kts
04-Aug-18 09:16 33.388073 -112.347775 61 9089ft 313kts
04-Aug-18 09:17 33.428681 -112.258027 75 7164ft 295kts
04-Aug-18 09:18 33.428975 -112.170787 92 5218ft 261kts
04-Aug-18 09:19 33.402109 -112.114363 197 3745ft 206kts
04-Aug-18 09:20 33.383253 -112.178207 261 4137ft 217kts
04-Aug-18 09:21 33.402398 -112.244289 346 3965ft 249kts
04-Aug-18 09:22 33.431905 -112.192736 97 3208ft 219kts
04-Aug-18 09:23 33.428913 -112.120153 91 2654ft 217kts
04-Aug-18 09:24 33.428876 -112.056785 89 1627ft 161kts
04-Aug-18 09:25 33.428792 -112.013917 88 1143ft 55kts
04-Aug-18 09:26 33.429569 -112.010626 48 1143ft 0kts
04-Aug-18 09:27 33.430827 -112.008951 358 1143ft 18kts
04-Aug-18 09:28 33.432137 -112.008542 81 1143ft 14kts
04-Aug-18 09:29 33.432833 -112.002022 87 1143ft 26kts
04-Aug-18 09:30 33.432829 -111.993597 82 1143ft 21kts
04-Aug-18 09:31 33.434098 -111.993662 284 1143ft 2kts
04-Aug-18 09:32 33.434113 -111.993731 284 1143ft 0kts
04-Aug-18 09:33 33.434113 -111.993731 284 1143ft 0kts
04-Aug-18 09:34 33.434113 -111.993731 284 1143ft 0kts
04-Aug-18 09:35 33.434113 -111.993731 284 1143ft 0kts
04-Aug-18 09:36 33.434113 -111.993731 284 1143ft 0kts

Navigation Log

Ident Type
Flight plan parsing failed, navigation log unavailable